SBI2005 UUDD-ULLI
Flight info
| Callsign | SBI2005 |
|---|---|
| Flight time | 1h 18m |
| Altitude | 36000 |
| Route | SUNUN4M SUNUN M869 RAVKA N50 NUDKO T561 ODATI T875 GENPA GENPA1A |
| Aircraft | A21N/M-SDE2E3FGHIRWXY/LB1 |
Departure
| Time | 2026-05-07 08:59 |
|---|---|
| Airport | Domodedovo International Airport (UUDD) |
Arrival
| Time | 2026-05-07 10:17 |
|---|---|
| Airport | Pulkovo Airport (ULLI) |
| Time | Latitude | Longitude | Altitude | Speed | Heading |
|---|---|---|---|---|---|
| 2026-05-07 08:32 | 55.41303 | 37.90283 | 589 ft | 0 kts | 50° |
| 2026-05-07 08:48 | 55.41299 | 37.90277 | 589 ft | 1 kts | 26° |
| 2026-05-07 08:49 | 55.41286 | 37.90267 | 589 ft | 1 kts | 36° |
| 2026-05-07 08:49 | 55.41277 | 37.90247 | 589 ft | 2 kts | 58° |
| 2026-05-07 08:49 | 55.41272 | 37.90222 | 589 ft | 2 kts | 96° |
| 2026-05-07 08:49 | 55.41277 | 37.90197 | 589 ft | 2 kts | 130° |
| 2026-05-07 08:50 | 55.41283 | 37.90188 | 589 ft | 1 kts | 149° |
| 2026-05-07 08:50 | 55.41287 | 37.90183 | 589 ft | 0 kts | 145° |
| 2026-05-07 08:52 | 55.41280 | 37.90192 | 589 ft | 3 kts | 141° |
| 2026-05-07 08:52 | 55.41252 | 37.90230 | 589 ft | 7 kts | 144° |
| 2026-05-07 08:53 | 55.41201 | 37.90293 | 589 ft | 11 kts | 146° |
| 2026-05-07 08:53 | 55.41131 | 37.90365 | 589 ft | 11 kts | 177° |
| 2026-05-07 08:53 | 55.41066 | 37.90275 | 589 ft | 12 kts | 232° |
| 2026-05-07 08:53 | 55.41013 | 37.90144 | 589 ft | 13 kts | 235° |
| 2026-05-07 08:54 | 55.40958 | 37.90004 | 589 ft | 14 kts | 235° |
| 2026-05-07 08:54 | 55.40899 | 37.89854 | 589 ft | 15 kts | 234° |
| 2026-05-07 08:54 | 55.40837 | 37.89700 | 589 ft | 15 kts | 236° |
| 2026-05-07 08:54 | 55.40757 | 37.89575 | 589 ft | 15 kts | 223° |
| 2026-05-07 08:55 | 55.40693 | 37.89420 | 589 ft | 16 kts | 235° |
| 2026-05-07 08:55 | 55.40601 | 37.89382 | 589 ft | 15 kts | 148° |
| 2026-05-07 08:55 | 55.40506 | 37.89491 | 589 ft | 16 kts | 146° |
| 2026-05-07 08:55 | 55.40408 | 37.89608 | 589 ft | 17 kts | 146° |
| 2026-05-07 08:56 | 55.40306 | 37.89728 | 589 ft | 17 kts | 147° |
| 2026-05-07 08:56 | 55.40201 | 37.89851 | 589 ft | 18 kts | 144° |
| 2026-05-07 08:56 | 55.40096 | 37.89978 | 589 ft | 18 kts | 147° |
| 2026-05-07 08:56 | 55.39984 | 37.90109 | 589 ft | 19 kts | 146° |
| 2026-05-07 08:57 | 55.39869 | 37.90247 | 589 ft | 20 kts | 146° |
| 2026-05-07 08:57 | 55.39748 | 37.90389 | 589 ft | 20 kts | 145° |
| 2026-05-07 08:57 | 55.39657 | 37.90500 | 589 ft | 15 kts | 149° |
| 2026-05-07 08:57 | 55.39567 | 37.90451 | 589 ft | 15 kts | 231° |
| 2026-05-07 08:58 | 55.39561 | 37.90286 | 589 ft | 14 kts | 309° |
| 2026-05-07 08:58 | 55.39581 | 37.90252 | 589 ft | 0 kts | 319° |
| 2026-05-07 08:58 | 55.39594 | 37.90233 | 589 ft | 9 kts | 322° |
| 2026-05-07 08:58 | 55.39902 | 37.89866 | 590 ft | 100 kts | 324° |
| 2026-05-07 08:59 | 55.40705 | 37.88898 | 611 ft | 174 kts | 322° |
| 2026-05-07 08:59 | 55.41737 | 37.87706 | 1301 ft | 174 kts | 322° |
| 2026-05-07 08:59 | 55.42697 | 37.86457 | 1817 ft | 174 kts | 313° |
| 2026-05-07 08:59 | 55.43496 | 37.84907 | 2337 ft | 173 kts | 302° |
| 2026-05-07 09:00 | 55.44167 | 37.83067 | 2700 ft | 183 kts | 290° |
| 2026-05-07 09:00 | 55.44586 | 37.80866 | 3019 ft | 199 kts | 283° |
| 2026-05-07 09:00 | 55.44970 | 37.78396 | 3302 ft | 222 kts | 283° |
| 2026-05-07 09:00 | 55.45392 | 37.75659 | 3746 ft | 240 kts | 283° |
| 2026-05-07 09:01 | 55.45850 | 37.72734 | 4265 ft | 255 kts | 283° |
| 2026-05-07 09:01 | 55.46333 | 37.69686 | 5057 ft | 258 kts | 283° |
| 2026-05-07 09:01 | 55.46811 | 37.66685 | 5922 ft | 258 kts | 283° |
| 2026-05-07 09:01 | 55.47293 | 37.63661 | 6765 ft | 258 kts | 283° |
| 2026-05-07 09:02 | 55.47777 | 37.60609 | 7561 ft | 260 kts | 283° |
| 2026-05-07 09:02 | 55.48263 | 37.57541 | 8327 ft | 263 kts | 283° |
| 2026-05-07 09:02 | 55.48752 | 37.54454 | 9087 ft | 265 kts | 283° |
| 2026-05-07 09:02 | 55.49246 | 37.51335 | 9835 ft | 267 kts | 283° |
| 2026-05-07 09:03 | 55.49748 | 37.48161 | 10485 ft | 273 kts | 283° |
| 2026-05-07 09:03 | 55.50270 | 37.44836 | 10852 ft | 289 kts | 283° |
| 2026-05-07 09:03 | 55.50814 | 37.41380 | 11418 ft | 296 kts | 283° |
| 2026-05-07 09:03 | 55.51364 | 37.37884 | 12114 ft | 298 kts | 283° |
| 2026-05-07 09:04 | 55.51921 | 37.34341 | 12806 ft | 301 kts | 282° |
| 2026-05-07 09:04 | 55.52471 | 37.30819 | 13471 ft | 303 kts | 282° |
| 2026-05-07 09:04 | 55.53028 | 37.27240 | 14105 ft | 307 kts | 282° |
| 2026-05-07 09:04 | 55.53601 | 37.23564 | 14737 ft | 310 kts | 282° |
| 2026-05-07 09:05 | 55.54170 | 37.19896 | 15337 ft | 314 kts | 282° |
| 2026-05-07 09:05 | 55.54747 | 37.16179 | 15919 ft | 318 kts | 282° |
| 2026-05-07 09:05 | 55.55331 | 37.12400 | 16501 ft | 321 kts | 282° |
| 2026-05-07 09:05 | 55.55921 | 37.08584 | 17095 ft | 324 kts | 282° |
| 2026-05-07 09:06 | 55.56514 | 37.04733 | 17641 ft | 328 kts | 282° |
| 2026-05-07 09:06 | 55.57114 | 37.00825 | 18182 ft | 332 kts | 283° |
| 2026-05-07 09:06 | 55.57720 | 36.96876 | 18735 ft | 335 kts | 283° |
| 2026-05-07 09:06 | 55.58331 | 36.92880 | 19276 ft | 338 kts | 283° |
| 2026-05-07 09:07 | 55.58939 | 36.88887 | 19817 ft | 341 kts | 283° |
| 2026-05-07 09:07 | 55.59558 | 36.84826 | 20373 ft | 343 kts | 283° |
| 2026-05-07 09:07 | 55.60398 | 36.80857 | 20875 ft | 350 kts | 295° |
| 2026-05-07 09:07 | 55.61827 | 36.77321 | 21359 ft | 359 kts | 310° |
| 2026-05-07 09:08 | 55.63771 | 36.74404 | 21601 ft | 373 kts | 320° |
| 2026-05-07 09:08 | 55.65900 | 36.71737 | 21957 ft | 380 kts | 321° |
| 2026-05-07 09:08 | 55.68099 | 36.69036 | 22429 ft | 383 kts | 322° |
| 2026-05-07 09:08 | 55.70287 | 36.66341 | 22930 ft | 385 kts | 321° |
| 2026-05-07 09:09 | 55.72481 | 36.63616 | 23419 ft | 387 kts | 321° |
| 2026-05-07 09:09 | 55.74680 | 36.60869 | 23892 ft | 389 kts | 321° |
| 2026-05-07 09:09 | 55.76895 | 36.58092 | 24360 ft | 392 kts | 321° |
| 2026-05-07 09:09 | 55.79119 | 36.55296 | 24820 ft | 394 kts | 321° |
| 2026-05-07 09:10 | 55.81362 | 36.52468 | 25248 ft | 397 kts | 321° |
| 2026-05-07 09:10 | 55.83631 | 36.49604 | 25652 ft | 399 kts | 321° |
| 2026-05-07 09:10 | 55.85889 | 36.46749 | 26043 ft | 402 kts | 321° |
| 2026-05-07 09:10 | 55.88238 | 36.43888 | 26431 ft | 406 kts | 323° |
| 2026-05-07 09:11 | 55.90611 | 36.41105 | 26825 ft | 408 kts | 323° |
| 2026-05-07 09:11 | 55.92983 | 36.38337 | 27199 ft | 410 kts | 323° |
| 2026-05-07 09:11 | 55.95379 | 36.35538 | 27554 ft | 413 kts | 323° |
| 2026-05-07 09:11 | 55.97768 | 36.32732 | 27920 ft | 415 kts | 323° |
| 2026-05-07 09:12 | 56.00196 | 36.29863 | 28287 ft | 417 kts | 323° |
| 2026-05-07 09:12 | 56.02600 | 36.27023 | 28625 ft | 419 kts | 323° |
| 2026-05-07 09:12 | 56.05044 | 36.24135 | 28959 ft | 421 kts | 323° |
| 2026-05-07 09:12 | 56.07486 | 36.21248 | 29294 ft | 423 kts | 322° |
| 2026-05-07 09:13 | 56.09935 | 36.18344 | 29616 ft | 425 kts | 322° |
| 2026-05-07 09:13 | 56.12282 | 36.15094 | 29924 ft | 424 kts | 315° |
| 2026-05-07 09:13 | 56.14336 | 36.11389 | 30231 ft | 422 kts | 308° |
| 2026-05-07 09:13 | 56.16115 | 36.07212 | 30515 ft | 421 kts | 301° |
| 2026-05-07 09:14 | 56.17638 | 36.02708 | 30799 ft | 422 kts | 297° |
| 2026-05-07 09:14 | 56.19151 | 35.98242 | 31145 ft | 423 kts | 300° |
| 2026-05-07 09:14 | 56.20822 | 35.93930 | 31565 ft | 423 kts | 304° |
| 2026-05-07 09:14 | 56.22685 | 35.89835 | 31977 ft | 423 kts | 308° |
| 2026-05-07 09:15 | 56.24713 | 35.86044 | 32359 ft | 424 kts | 312° |
| 2026-05-07 09:15 | 56.26926 | 35.82525 | 32744 ft | 425 kts | 317° |
| 2026-05-07 09:15 | 56.29280 | 35.79253 | 33117 ft | 425 kts | 319° |
| 2026-05-07 09:15 | 56.31631 | 35.76105 | 33482 ft | 424 kts | 319° |
| 2026-05-07 09:16 | 56.34015 | 35.72934 | 33831 ft | 423 kts | 319° |
| 2026-05-07 09:16 | 56.36346 | 35.69832 | 34148 ft | 422 kts | 319° |
| 2026-05-07 09:16 | 56.38703 | 35.66684 | 34420 ft | 423 kts | 319° |
| 2026-05-07 09:16 | 56.41082 | 35.63497 | 34649 ft | 424 kts | 319° |
| 2026-05-07 09:17 | 56.43435 | 35.60340 | 34869 ft | 425 kts | 319° |
| 2026-05-07 09:17 | 56.45801 | 35.57156 | 35007 ft | 428 kts | 319° |
| 2026-05-07 09:17 | 56.50612 | 35.50669 | 35171 ft | 434 kts | 319° |
| 2026-05-07 09:18 | 56.55491 | 35.44068 | 35319 ft | 440 kts | 319° |
| 2026-05-07 09:18 | 56.60415 | 35.37360 | 35460 ft | 445 kts | 319° |
| 2026-05-07 09:19 | 56.65360 | 35.30530 | 35689 ft | 446 kts | 317° |
| 2026-05-07 09:19 | 56.67786 | 35.27159 | 35837 ft | 446 kts | 317° |
| 2026-05-07 09:19 | 56.70263 | 35.23716 | 35912 ft | 446 kts | 317° |
| 2026-05-07 09:20 | 56.75185 | 35.16873 | 35927 ft | 446 kts | 317° |
| 2026-05-07 09:20 | 56.80122 | 35.09989 | 35929 ft | 446 kts | 318° |
| 2026-05-07 09:21 | 56.85020 | 35.03141 | 35932 ft | 445 kts | 317° |
| 2026-05-07 09:21 | 56.89939 | 34.96253 | 35930 ft | 445 kts | 319° |
| 2026-05-07 09:22 | 56.95056 | 34.89843 | 35934 ft | 447 kts | 322° |
| 2026-05-07 09:22 | 57.00266 | 34.83635 | 35934 ft | 447 kts | 322° |
| 2026-05-07 09:23 | 57.05461 | 34.77426 | 35934 ft | 447 kts | 322° |
| 2026-05-07 09:23 | 57.10692 | 34.71142 | 35936 ft | 447 kts | 322° |
| 2026-05-07 09:24 | 57.15880 | 34.64920 | 35938 ft | 447 kts | 321° |
| 2026-05-07 09:24 | 57.21093 | 34.58630 | 35940 ft | 447 kts | 321° |
| 2026-05-07 09:25 | 57.26273 | 34.52340 | 35939 ft | 447 kts | 321° |
| 2026-05-07 09:25 | 57.31449 | 34.46030 | 35942 ft | 447 kts | 321° |
| 2026-05-07 09:26 | 57.36618 | 34.39704 | 35945 ft | 446 kts | 321° |
| 2026-05-07 09:26 | 57.41779 | 34.33364 | 35948 ft | 445 kts | 320° |
| 2026-05-07 09:27 | 57.46917 | 34.27004 | 35947 ft | 444 kts | 320° |
| 2026-05-07 09:28 | 57.54631 | 34.17443 | 35943 ft | 444 kts | 320° |
| 2026-05-07 09:28 | 57.59766 | 34.11052 | 35943 ft | 444 kts | 320° |
| 2026-05-07 09:29 | 57.64895 | 34.04653 | 35943 ft | 444 kts | 320° |
| 2026-05-07 09:29 | 57.70003 | 33.98260 | 35944 ft | 444 kts | 319° |
| 2026-05-07 09:30 | 57.75151 | 33.91792 | 35943 ft | 444 kts | 319° |
| 2026-05-07 09:30 | 57.80257 | 33.85357 | 35942 ft | 443 kts | 320° |
| 2026-05-07 09:31 | 57.85371 | 33.78884 | 35950 ft | 442 kts | 319° |
| 2026-05-07 09:31 | 57.90268 | 33.71944 | 35956 ft | 439 kts | 315° |
| 2026-05-07 09:32 | 57.95001 | 33.64752 | 35963 ft | 438 kts | 314° |
| 2026-05-07 09:32 | 57.99723 | 33.57538 | 35976 ft | 438 kts | 315° |
| 2026-05-07 09:33 | 58.04445 | 33.50315 | 35956 ft | 437 kts | 314° |
| 2026-05-07 09:33 | 58.09133 | 33.43127 | 35957 ft | 436 kts | 314° |
| 2026-05-07 09:34 | 58.13852 | 33.35891 | 35972 ft | 435 kts | 314° |
| 2026-05-07 09:34 | 58.18525 | 33.28680 | 35985 ft | 434 kts | 314° |
| 2026-05-07 09:35 | 58.23165 | 33.21502 | 35963 ft | 433 kts | 313° |
| 2026-05-07 09:35 | 58.27828 | 33.14258 | 35978 ft | 432 kts | 314° |
| 2026-05-07 09:36 | 58.32458 | 33.07036 | 35972 ft | 432 kts | 313° |
| 2026-05-07 09:36 | 58.37114 | 32.99746 | 35974 ft | 432 kts | 313° |
| 2026-05-07 09:37 | 58.41731 | 32.92493 | 35981 ft | 432 kts | 314° |
| 2026-05-07 09:37 | 58.46351 | 32.85216 | 35989 ft | 431 kts | 313° |
| 2026-05-07 09:38 | 58.50978 | 32.77904 | 36001 ft | 431 kts | 314° |
| 2026-05-07 09:38 | 58.55570 | 32.70623 | 35977 ft | 427 kts | 313° |
| 2026-05-07 09:39 | 58.60066 | 32.63480 | 35992 ft | 416 kts | 313° |
| 2026-05-07 09:39 | 58.64453 | 32.56462 | 35998 ft | 412 kts | 313° |
| 2026-05-07 09:40 | 58.68865 | 32.49379 | 35832 ft | 413 kts | 313° |
| 2026-05-07 09:40 | 58.71059 | 32.45854 | 35523 ft | 411 kts | 313° |
| 2026-05-07 09:40 | 58.73249 | 32.42330 | 35066 ft | 412 kts | 312° |
| 2026-05-07 09:40 | 58.75441 | 32.38792 | 34336 ft | 415 kts | 312° |
| 2026-05-07 09:41 | 58.77650 | 32.35221 | 33624 ft | 414 kts | 312° |
| 2026-05-07 09:41 | 58.79834 | 32.31683 | 32934 ft | 413 kts | 311° |
| 2026-05-07 09:41 | 58.82024 | 32.28124 | 32254 ft | 412 kts | 310° |
| 2026-05-07 09:41 | 58.84213 | 32.24561 | 31563 ft | 410 kts | 310° |
| 2026-05-07 09:42 | 58.86380 | 32.21032 | 30877 ft | 409 kts | 310° |
| 2026-05-07 09:42 | 58.88521 | 32.17541 | 30253 ft | 405 kts | 310° |
| 2026-05-07 09:42 | 58.90665 | 32.14040 | 29803 ft | 398 kts | 310° |
| 2026-05-07 09:42 | 58.92760 | 32.10615 | 29330 ft | 392 kts | 310° |
| 2026-05-07 09:43 | 58.94815 | 32.07250 | 28868 ft | 386 kts | 310° |
| 2026-05-07 09:43 | 58.96857 | 32.03904 | 28405 ft | 380 kts | 310° |
| 2026-05-07 09:43 | 58.98851 | 32.00626 | 27953 ft | 375 kts | 310° |
| 2026-05-07 09:43 | 59.00838 | 31.97356 | 27497 ft | 370 kts | 310° |
| 2026-05-07 09:44 | 59.02781 | 31.94152 | 27050 ft | 366 kts | 310° |
| 2026-05-07 09:44 | 59.04679 | 31.91013 | 26609 ft | 361 kts | 310° |
| 2026-05-07 09:44 | 59.06587 | 31.87856 | 26174 ft | 358 kts | 310° |
| 2026-05-07 09:44 | 59.08460 | 31.84672 | 25865 ft | 359 kts | 308° |
| 2026-05-07 09:45 | 59.10213 | 31.81181 | 25904 ft | 367 kts | 303° |
| 2026-05-07 09:45 | 59.11861 | 31.77307 | 25947 ft | 369 kts | 299° |
| 2026-05-07 09:45 | 59.13337 | 31.73267 | 25971 ft | 369 kts | 297° |
| 2026-05-07 09:45 | 59.14778 | 31.69141 | 25976 ft | 369 kts | 297° |
| 2026-05-07 09:46 | 59.16208 | 31.65003 | 25962 ft | 369 kts | 296° |
| 2026-05-07 09:46 | 59.17632 | 31.60863 | 25506 ft | 370 kts | 297° |
| 2026-05-07 09:46 | 59.19074 | 31.56663 | 24954 ft | 366 kts | 297° |
| 2026-05-07 09:46 | 59.20467 | 31.52598 | 24495 ft | 361 kts | 297° |
| 2026-05-07 09:47 | 59.21847 | 31.48559 | 23999 ft | 358 kts | 297° |
| 2026-05-07 09:47 | 59.23215 | 31.44545 | 23480 ft | 355 kts | 297° |
| 2026-05-07 09:47 | 59.24581 | 31.40529 | 22975 ft | 353 kts | 297° |
| 2026-05-07 09:47 | 59.25920 | 31.36589 | 22508 ft | 349 kts | 297° |
| 2026-05-07 09:48 | 59.27259 | 31.32635 | 22064 ft | 346 kts | 296° |
| 2026-05-07 09:48 | 59.28579 | 31.28722 | 21616 ft | 343 kts | 296° |
| 2026-05-07 09:48 | 59.29880 | 31.24869 | 21186 ft | 340 kts | 296° |
| 2026-05-07 09:48 | 59.31177 | 31.21019 | 20730 ft | 338 kts | 296° |
| 2026-05-07 09:49 | 59.32469 | 31.17176 | 20272 ft | 336 kts | 296° |
| 2026-05-07 09:49 | 59.33751 | 31.13366 | 19824 ft | 334 kts | 296° |
| 2026-05-07 09:49 | 59.35006 | 31.09624 | 19375 ft | 333 kts | 296° |
| 2026-05-07 09:49 | 59.36274 | 31.05834 | 18930 ft | 331 kts | 296° |
| 2026-05-07 09:50 | 59.37552 | 31.02015 | 18484 ft | 330 kts | 296° |
| 2026-05-07 09:50 | 59.38798 | 30.98289 | 18057 ft | 329 kts | 297° |
| 2026-05-07 09:50 | 59.40037 | 30.94566 | 17618 ft | 328 kts | 297° |
| 2026-05-07 09:50 | 59.41287 | 30.90813 | 17164 ft | 327 kts | 297° |
| 2026-05-07 09:51 | 59.42533 | 30.87063 | 16712 ft | 327 kts | 297° |
| 2026-05-07 09:51 | 59.43766 | 30.83347 | 16266 ft | 326 kts | 298° |
| 2026-05-07 09:51 | 59.44991 | 30.79652 | 15818 ft | 326 kts | 298° |
| 2026-05-07 09:51 | 59.46234 | 30.75893 | 15356 ft | 325 kts | 298° |
| 2026-05-07 09:52 | 59.47453 | 30.72202 | 14900 ft | 325 kts | 298° |
| 2026-05-07 09:52 | 59.48676 | 30.68491 | 14447 ft | 325 kts | 299° |
| 2026-05-07 09:52 | 59.49915 | 30.64727 | 13999 ft | 323 kts | 300° |
| 2026-05-07 09:52 | 59.51129 | 30.61027 | 13575 ft | 322 kts | 300° |
| 2026-05-07 09:53 | 59.52341 | 30.57333 | 13096 ft | 322 kts | 300° |
| 2026-05-07 09:53 | 59.53542 | 30.53610 | 12612 ft | 322 kts | 298° |
| 2026-05-07 09:53 | 59.54561 | 30.49698 | 12121 ft | 322 kts | 292° |
| 2026-05-07 09:53 | 59.55339 | 30.45557 | 11647 ft | 321 kts | 287° |
| 2026-05-07 09:54 | 59.55986 | 30.41363 | 11185 ft | 320 kts | 288° |
| 2026-05-07 09:54 | 59.56608 | 30.37205 | 10789 ft | 317 kts | 288° |
| 2026-05-07 09:54 | 59.57237 | 30.32996 | 10374 ft | 315 kts | 288° |
| 2026-05-07 09:54 | 59.57845 | 30.28920 | 10119 ft | 304 kts | 288° |
| 2026-05-07 09:55 | 59.58423 | 30.25046 | 10077 ft | 289 kts | 289° |
| 2026-05-07 09:55 | 59.58982 | 30.21306 | 9945 ft | 281 kts | 289° |
| 2026-05-07 09:55 | 59.59542 | 30.17585 | 9547 ft | 281 kts | 289° |
| 2026-05-07 09:55 | 59.60094 | 30.13911 | 9236 ft | 279 kts | 288° |
| 2026-05-07 09:56 | 59.60640 | 30.10240 | 8875 ft | 277 kts | 288° |
| 2026-05-07 09:56 | 59.61177 | 30.06624 | 8594 ft | 274 kts | 288° |
| 2026-05-07 09:56 | 59.61713 | 30.03016 | 8262 ft | 273 kts | 288° |
| 2026-05-07 09:56 | 59.62244 | 29.99435 | 7924 ft | 272 kts | 288° |
| 2026-05-07 09:57 | 59.62769 | 29.95879 | 7643 ft | 270 kts | 287° |
| 2026-05-07 09:57 | 59.63297 | 29.92288 | 7300 ft | 270 kts | 287° |
| 2026-05-07 09:57 | 59.63820 | 29.88731 | 6989 ft | 269 kts | 287° |
| 2026-05-07 09:57 | 59.64332 | 29.85233 | 6665 ft | 268 kts | 287° |
| 2026-05-07 09:58 | 59.64854 | 29.81653 | 6357 ft | 267 kts | 287° |
| 2026-05-07 09:58 | 59.65364 | 29.78149 | 6049 ft | 266 kts | 287° |
| 2026-05-07 09:58 | 59.65876 | 29.74629 | 5746 ft | 265 kts | 288° |
| 2026-05-07 09:58 | 59.66377 | 29.71183 | 5453 ft | 263 kts | 288° |
| 2026-05-07 09:59 | 59.66883 | 29.67692 | 5160 ft | 262 kts | 288° |
| 2026-05-07 09:59 | 59.67380 | 29.64257 | 5033 ft | 252 kts | 288° |
| 2026-05-07 09:59 | 59.67856 | 29.60962 | 5030 ft | 247 kts | 289° |
| 2026-05-07 09:59 | 59.68521 | 29.57881 | 5023 ft | 244 kts | 304° |
| 2026-05-07 10:00 | 59.69506 | 29.55162 | 5024 ft | 242 kts | 311° |
| 2026-05-07 10:00 | 59.70558 | 29.52586 | 5023 ft | 242 kts | 313° |
| 2026-05-07 10:00 | 59.71635 | 29.49977 | 5022 ft | 242 kts | 312° |
| 2026-05-07 10:00 | 59.72765 | 29.47530 | 5013 ft | 239 kts | 326° |
| 2026-05-07 10:01 | 59.74184 | 29.45957 | 5025 ft | 234 kts | 342° |
| 2026-05-07 10:01 | 59.75704 | 29.44840 | 5024 ft | 234 kts | 345° |
| 2026-05-07 10:01 | 59.77251 | 29.43763 | 5025 ft | 234 kts | 345° |
| 2026-05-07 10:01 | 59.78769 | 29.42687 | 5024 ft | 234 kts | 344° |
| 2026-05-07 10:02 | 59.80292 | 29.41582 | 5025 ft | 234 kts | 344° |
| 2026-05-07 10:02 | 59.81817 | 29.40458 | 5028 ft | 234 kts | 343° |
| 2026-05-07 10:02 | 59.83362 | 29.39458 | 5022 ft | 231 kts | 353° |
| 2026-05-07 10:02 | 59.84954 | 29.39272 | 5029 ft | 227 kts | 7° |
| 2026-05-07 10:03 | 59.86524 | 29.39521 | 5030 ft | 227 kts | 9° |
| 2026-05-07 10:03 | 59.88113 | 29.39830 | 5034 ft | 228 kts | 9° |
| 2026-05-07 10:03 | 59.89675 | 29.40125 | 5036 ft | 228 kts | 9° |
| 2026-05-07 10:03 | 59.91263 | 29.40413 | 5037 ft | 227 kts | 9° |
| 2026-05-07 10:04 | 59.92812 | 29.41030 | 5032 ft | 224 kts | 22° |
| 2026-05-07 10:04 | 59.94231 | 29.42275 | 5033 ft | 223 kts | 30° |
| 2026-05-07 10:04 | 59.95602 | 29.43684 | 5034 ft | 222 kts | 31° |
| 2026-05-07 10:04 | 59.96983 | 29.45124 | 5033 ft | 222 kts | 31° |
| 2026-05-07 10:05 | 59.98343 | 29.46533 | 5035 ft | 222 kts | 30° |
| 2026-05-07 10:05 | 59.99730 | 29.47977 | 5035 ft | 222 kts | 33° |
| 2026-05-07 10:05 | 60.00942 | 29.49793 | 5036 ft | 220 kts | 46° |
| 2026-05-07 10:05 | 60.01970 | 29.52036 | 5030 ft | 219 kts | 51° |
| 2026-05-07 10:06 | 60.02968 | 29.54378 | 5034 ft | 219 kts | 51° |
| 2026-05-07 10:06 | 60.03896 | 29.56753 | 5032 ft | 218 kts | 63° |
| 2026-05-07 10:06 | 60.04206 | 29.59680 | 5019 ft | 217 kts | 95° |
| 2026-05-07 10:06 | 60.03672 | 29.62506 | 5003 ft | 221 kts | 125° |
| 2026-05-07 10:07 | 60.02464 | 29.64376 | 4991 ft | 228 kts | 156° |
| 2026-05-07 10:07 | 60.00922 | 29.65249 | 5008 ft | 232 kts | 162° |
| 2026-05-07 10:07 | 59.99339 | 29.66024 | 4998 ft | 232 kts | 162° |
| 2026-05-07 10:07 | 59.97764 | 29.66798 | 4993 ft | 233 kts | 162° |
| 2026-05-07 10:08 | 59.96198 | 29.67576 | 4998 ft | 233 kts | 162° |
| 2026-05-07 10:08 | 59.94620 | 29.68368 | 4991 ft | 233 kts | 162° |
| 2026-05-07 10:08 | 59.93050 | 29.69159 | 4990 ft | 233 kts | 162° |
| 2026-05-07 10:08 | 59.91491 | 29.69946 | 4980 ft | 233 kts | 162° |
| 2026-05-07 10:09 | 59.89917 | 29.70742 | 4713 ft | 234 kts | 162° |
| 2026-05-07 10:09 | 59.88332 | 29.71541 | 4409 ft | 231 kts | 162° |
| 2026-05-07 10:09 | 59.86794 | 29.72314 | 4157 ft | 228 kts | 162° |
| 2026-05-07 10:09 | 59.85254 | 29.73089 | 3893 ft | 225 kts | 162° |
| 2026-05-07 10:10 | 59.83759 | 29.73841 | 3643 ft | 222 kts | 162° |
| 2026-05-07 10:10 | 59.82264 | 29.74669 | 3448 ft | 221 kts | 153° |
| 2026-05-07 10:10 | 59.81120 | 29.76536 | 3447 ft | 214 kts | 118° |
| 2026-05-07 10:10 | 59.80722 | 29.79333 | 3451 ft | 208 kts | 86° |
| 2026-05-07 10:11 | 59.81114 | 29.82028 | 3434 ft | 205 kts | 61° |
| 2026-05-07 10:11 | 59.81839 | 29.84403 | 3425 ft | 196 kts | 59° |
| 2026-05-07 10:11 | 59.82518 | 29.86592 | 3414 ft | 176 kts | 59° |
| 2026-05-07 10:11 | 59.83129 | 29.88575 | 3258 ft | 160 kts | 60° |
| 2026-05-07 10:12 | 59.83672 | 29.90347 | 3110 ft | 144 kts | 60° |
| 2026-05-07 10:12 | 59.84188 | 29.92039 | 3003 ft | 141 kts | 60° |
| 2026-05-07 10:12 | 59.84692 | 29.93695 | 2875 ft | 140 kts | 60° |
| 2026-05-07 10:12 | 59.85031 | 29.95474 | 2557 ft | 139 kts | 86° |
| 2026-05-07 10:13 | 59.84911 | 29.97385 | 2488 ft | 139 kts | 98° |
| 2026-05-07 10:13 | 59.84706 | 29.99256 | 2490 ft | 139 kts | 100° |
| 2026-05-07 10:13 | 59.84470 | 30.01139 | 2478 ft | 139 kts | 102° |
| 2026-05-07 10:13 | 59.84209 | 30.03016 | 2308 ft | 139 kts | 102° |
| 2026-05-07 10:14 | 59.83942 | 30.04849 | 2131 ft | 138 kts | 104° |
| 2026-05-07 10:14 | 59.83668 | 30.06679 | 1937 ft | 138 kts | 103° |
| 2026-05-07 10:14 | 59.83390 | 30.08514 | 1748 ft | 138 kts | 103° |
| 2026-05-07 10:14 | 59.83115 | 30.10331 | 1570 ft | 138 kts | 104° |
| 2026-05-07 10:15 | 59.82838 | 30.12165 | 1381 ft | 137 kts | 104° |
| 2026-05-07 10:15 | 59.82564 | 30.13981 | 1201 ft | 137 kts | 106° |
| 2026-05-07 10:15 | 59.82292 | 30.15785 | 1015 ft | 136 kts | 107° |
| 2026-05-07 10:15 | 59.82017 | 30.17605 | 834 ft | 137 kts | 105° |
| 2026-05-07 10:16 | 59.81748 | 30.19410 | 651 ft | 136 kts | 107° |
| 2026-05-07 10:16 | 59.81475 | 30.21226 | 469 ft | 137 kts | 107° |
| 2026-05-07 10:16 | 59.81206 | 30.23022 | 281 ft | 135 kts | 107° |
| 2026-05-07 10:16 | 59.80937 | 30.24807 | 103 ft | 134 kts | 104° |
| 2026-05-07 10:17 | 59.80698 | 30.26414 | 86 ft | 101 kts | 105° |
| 2026-05-07 10:17 | 59.80546 | 30.27426 | 86 ft | 51 kts | 106° |
| 2026-05-07 10:17 | 59.80485 | 30.27834 | 86 ft | 21 kts | 111° |
| 2026-05-07 10:17 | 59.80438 | 30.27779 | 86 ft | 14 kts | 276° |
| 2026-05-07 10:18 | 59.80404 | 30.27599 | 86 ft | 14 kts | 250° |
| 2026-05-07 10:18 | 59.80372 | 30.27408 | 86 ft | 14 kts | 251° |
| 2026-05-07 10:18 | 59.80350 | 30.27208 | 86 ft | 15 kts | 275° |
| 2026-05-07 10:18 | 59.80376 | 30.27001 | 86 ft | 15 kts | 287° |
| 2026-05-07 10:19 | 59.80339 | 30.26844 | 86 ft | 15 kts | 198° |
| 2026-05-07 10:19 | 59.80235 | 30.26784 | 86 ft | 15 kts | 196° |
| 2026-05-07 10:19 | 59.80129 | 30.26722 | 86 ft | 11 kts | 196° |
| 2026-05-07 10:19 | 59.80051 | 30.26677 | 86 ft | 12 kts | 196° |
| 2026-05-07 10:20 | 59.79995 | 30.26648 | 86 ft | 7 kts | 171° |
| 2026-05-07 10:20 | 59.79964 | 30.26744 | 86 ft | 9 kts | 109° |
| 2026-05-07 10:20 | 59.79960 | 30.26768 | 86 ft | 0 kts | 107° |